Brook, IN (47922)

12:42 AM CST on January 28, 2015 (GMT -0600)
Brook | Change Station
CLOSE
Current Station
Personal Weather Station
Location: Brook, IN
Elevation: 663 ft
Nearby Weather Stations

Elev 663 ft 40.82 °N, 87.33 °W | Updated 5 minutes ago

Clear
Clear
20.3 °F
Feels Like 20 °F
N
0.0
Wind Variable Wind from WNW
Gusts 1.0 mph

Today
High -- | Low -- °F
--% Chance of Precip.
Yesterday
High -- | Low -- °F
Precip. -- in
7:03 AM 5:01 PM
First Quarter, 61% visible
Pressure 30.27 in
Visibility 10.0 miles
Clouds Clear
Windchill 20 °F
Dew Point 18 °F
Humidity 92%
Rainfall 0.00 in
Snow Depth Not available.
UV 0 out of 12
Pollen .10 out of 12
Air Quality Not available.
Flu Activity Not available.
METAR KRZL 280635Z AUTO 00000KT 10SM CLR M06/M06 A3027 RMK AO2

More Conditions Fewer Conditions

Pressure 30.27 in
Visibility 10.0 miles
Clouds Clear
Windchill 20 °F
Dew Point 18 °F
Humidity 92%
Rainfall 0.00 in
Snow Depth Not available.
UV 0 out of 12
Pollen .10 out of 12
Air Quality Not available.
Flu Activity Not available.
METAR KRZL 280635Z AUTO 00000KT 10SM CLR M06/M06 A3027 RMK AO2

More Conditions Fewer Conditions

10-Day Weather Forecast

Almanac

Astronomy

Jan. 28, 2015 Rise Set
Actual Time
Civil Twilight
Nautical Twilight
Astronomical Twilight
Moon
Length of Visible Light
Length of Day
Tomorrow will be .
, % of the Moon is Illuminated

Today's Extremes

State Highs State Lows

Community

WunderPhotos

Upload Photos

1,791,114 photos uploaded!

WunderBlogs® & News

Nearby

Air Quality

  Air Quality AQ Index Pollutant
Not available.

Snow Depth

Station Depth Elevation

Earthquake Activity

City Distance Mag. Time & Date
Minimum magnitude displayed is 2.5.

Coastal Water Temperatures

Place Temperature

Nearby Weather Stations